createdAt,value
2018-06-05T00:00:18.602Z,23.10
2018-06-05T00:02:47.791Z,23.00
2018-06-05T00:05:16.965Z,23.00
2018-06-05T00:07:46.193Z,22.90
2018-06-05T00:10:15.356Z,22.80
2018-06-05T00:12:44.536Z,22.70
2018-06-05T00:15:13.705Z,22.70
2018-06-05T00:17:43.003Z,22.80
2018-06-05T00:20:12.153Z,22.90
2018-06-05T00:22:41.301Z,22.90
2018-06-05T00:25:10.531Z,22.70
2018-06-05T00:27:39.670Z,22.70
2018-06-05T00:30:08.801Z,22.70
2018-06-05T00:32:37.949Z,22.60
2018-06-05T00:35:07.113Z,22.60
2018-06-05T00:37:36.265Z,22.60
2018-06-05T00:40:05.490Z,22.50
2018-06-05T00:42:34.617Z,22.50
2018-06-05T00:45:03.801Z,22.60
2018-06-05T00:47:32.905Z,22.50
2018-06-05T00:50:02.090Z,22.60
2018-06-05T00:52:31.253Z,22.50
2018-06-05T00:55:00.497Z,22.50
2018-06-05T00:57:30.308Z,22.40
2018-06-05T00:59:59.399Z,22.40
2018-06-05T01:02:28.721Z,22.30
2018-06-05T01:04:57.914Z,22.40
2018-06-05T01:07:27.122Z,22.40
2018-06-05T01:09:56.318Z,22.50
2018-06-05T01:12:25.538Z,22.50
2018-06-05T01:14:54.698Z,22.20
2018-06-05T01:17:24.006Z,22.30
2018-06-05T01:19:53.232Z,22.30
2018-06-05T01:22:22.425Z,22.20
2018-06-05T01:24:51.694Z,22.10
2018-06-05T01:27:20.876Z,22.10
2018-06-05T01:29:50.087Z,22.10
2018-06-05T01:32:19.333Z,22.10
2018-06-05T01:34:48.516Z,22.10
2018-06-05T01:37:17.748Z,22.20
2018-06-05T01:39:46.995Z,22.10
2018-06-05T01:42:16.172Z,21.90
2018-06-05T01:44:45.333Z,21.90
2018-06-05T01:49:43.202Z,21.50
2018-06-05T01:52:12.394Z,21.60
2018-06-05T01:54:48.128Z,21.70
2018-06-05T01:57:17.230Z,21.80
2018-06-05T01:59:46.438Z,21.90
2018-06-05T02:02:15.588Z,21.80
2018-06-05T02:04:44.883Z,21.70
2018-06-05T02:07:14.021Z,21.60
2018-06-05T02:09:43.138Z,21.60
2018-06-05T02:12:12.311Z,21.50
2018-06-05T02:14:41.454Z,21.30
2018-06-05T02:17:10.584Z,21.50
2018-06-05T02:19:39.677Z,21.30
2018-06-05T02:22:08.805Z,21.40
2018-06-05T02:24:37.932Z,21.40
2018-06-05T02:27:07.065Z,21.40
2018-06-05T02:29:36.154Z,21.50
2018-06-05T02:32:05.280Z,21.50
2018-06-05T02:34:34.449Z,21.60
2018-06-05T02:37:03.612Z,21.60
2018-06-05T02:39:32.855Z,21.50
2018-06-05T02:42:01.990Z,21.50
2018-06-05T02:44:31.215Z,21.70
2018-06-05T02:47:00.345Z,21.80
2018-06-05T02:49:29.441Z,21.70
2018-06-05T02:51:58.582Z,21.60
2018-06-05T02:54:27.704Z,21.60
2018-06-05T02:56:56.850Z,21.60
2018-06-05T02:59:25.976Z,21.60
2018-06-05T03:04:23.908Z,21.50
2018-06-05T03:06:53.117Z,21.50
2018-06-05T03:09:22.265Z,21.50
2018-06-05T03:11:51.380Z,21.50
2018-06-05T03:14:20.598Z,21.60
2018-06-05T03:16:49.749Z,21.60
2018-06-05T03:19:18.896Z,21.50
2018-06-05T03:21:48.055Z,21.30
2018-06-05T03:24:17.184Z,21.40
2018-06-05T03:26:46.332Z,21.40
2018-06-05T03:29:15.577Z,21.40
2018-06-05T03:31:44.753Z,21.40
2018-06-05T03:34:13.914Z,21.50
2018-06-05T03:36:43.014Z,21.50
2018-06-05T03:39:12.208Z,21.50
2018-06-05T03:41:41.328Z,21.50
2018-06-05T03:44:10.468Z,21.50
2018-06-05T03:46:39.598Z,21.50
2018-06-05T03:49:08.765Z,21.50
2018-06-05T03:51:37.858Z,21.50
2018-06-05T03:54:07.005Z,21.50
2018-06-05T03:56:36.110Z,21.60
2018-06-05T03:59:05.297Z,21.50
2018-06-05T04:01:34.614Z,21.50
2018-06-05T04:04:03.771Z,21.50
2018-06-05T04:06:33.381Z,21.50
2018-06-05T04:09:02.546Z,21.40
2018-06-05T04:11:31.778Z,21.50
2018-06-05T04:14:00.873Z,21.40
2018-06-05T04:16:30.089Z,21.40
2018-06-05T04:18:59.236Z,21.50
2018-06-05T04:21:28.393Z,21.40
2018-06-05T04:23:57.492Z,21.40
2018-06-05T04:26:26.712Z,21.40
2018-06-05T04:28:55.872Z,21.30
2018-06-05T04:31:24.986Z,21.30
2018-06-05T04:33:54.146Z,21.20
2018-06-05T04:36:23.341Z,21.20
2018-06-05T04:38:52.470Z,21.10
2018-06-05T04:41:21.629Z,21.10
2018-06-05T04:43:50.783Z,21.20
2018-06-05T04:46:19.935Z,21.40
2018-06-05T04:48:49.064Z,21.40
2018-06-05T04:51:18.174Z,21.40
2018-06-05T04:53:47.333Z,21.40
2018-06-05T04:56:16.604Z,21.50
2018-06-05T04:58:45.730Z,21.40
2018-06-05T05:01:14.876Z,21.40
2018-06-05T05:03:44.017Z,21.40
2018-06-05T05:06:13.184Z,21.50
2018-06-05T05:08:42.485Z,21.60
2018-06-05T05:11:11.733Z,21.60
2018-06-05T05:13:40.874Z,21.60
2018-06-05T05:16:10.034Z,21.70
2018-06-05T05:18:39.202Z,21.70
2018-06-05T05:21:08.319Z,21.80
2018-06-05T05:23:37.566Z,21.70
2018-06-05T05:26:06.682Z,21.80
2018-06-05T05:28:35.880Z,21.90
2018-06-05T05:33:33.692Z,21.90
2018-06-05T05:36:02.804Z,21.80
2018-06-05T05:38:31.934Z,21.70
2018-06-05T05:41:01.079Z,21.70
2018-06-05T05:43:30.228Z,21.70
2018-06-05T05:45:59.370Z,21.90
2018-06-05T05:48:28.545Z,21.90
2018-06-05T05:50:57.670Z,21.90
2018-06-05T05:53:26.902Z,22.00
2018-06-05T05:55:56.066Z,22.10
2018-06-05T05:58:25.206Z,22.00
2018-06-05T06:00:54.330Z,22.10
2018-06-05T06:03:24.031Z,22.10
2018-06-05T06:05:53.213Z,22.00
2018-06-05T06:08:22.321Z,22.00
2018-06-05T06:10:51.622Z,22.10
2018-06-05T06:13:23.580Z,22.10
2018-06-05T06:15:53.666Z,22.10
2018-06-05T06:18:22.833Z,22.20
2018-06-05T06:23:20.904Z,22.20
2018-06-05T06:25:50.021Z,22.30
2018-06-05T06:28:19.194Z,22.40
2018-06-05T06:30:48.464Z,22.50
2018-06-05T06:33:17.622Z,22.60
2018-06-05T06:35:46.816Z,22.60
2018-06-05T06:38:15.986Z,22.70
2018-06-05T06:43:14.157Z,23.40
2018-06-05T06:45:43.391Z,24.00
2018-06-05T06:48:12.630Z,25.30
2018-06-05T06:50:41.799Z,26.80
2018-06-05T06:53:10.980Z,27.40
2018-06-05T06:55:40.139Z,27.60
2018-06-05T06:58:09.318Z,28.40
2018-06-05T07:00:38.445Z,30.90
2018-06-05T07:03:07.747Z,32.80
2018-06-05T07:05:36.951Z,33.30
2018-06-05T07:10:34.997Z,35.20
2018-06-05T07:13:04.137Z,35.80
2018-06-05T07:15:33.307Z,35.70
2018-06-05T07:18:02.541Z,35.60
2018-06-05T07:20:31.706Z,37.80
2018-06-05T07:23:00.814Z,38.90
2018-06-05T07:25:29.969Z,38.80
2018-06-05T07:27:59.117Z,39.10
2018-06-05T07:30:28.330Z,39.00
2018-06-05T07:32:57.473Z,38.20
2018-06-05T07:35:26.622Z,37.70
2018-06-05T07:37:55.749Z,38.50
2018-06-05T07:40:24.898Z,38.70
2018-06-05T07:42:54.010Z,38.90
2018-06-05T07:45:23.136Z,38.50
2018-06-05T07:47:52.254Z,38.40
2018-06-05T07:50:21.383Z,38.90
2018-06-05T07:52:50.532Z,38.10
2018-06-05T07:55:19.733Z,36.20
2018-06-05T07:57:48.861Z,33.30
2018-06-05T08:00:17.977Z,32.00
2018-06-05T08:02:47.127Z,32.40
2018-06-05T08:05:16.488Z,35.20
2018-06-05T08:07:45.608Z,36.90
2018-06-05T08:10:14.738Z,38.00
2018-06-05T08:12:43.857Z,38.50
2018-06-05T08:15:12.949Z,39.50
2018-06-05T08:17:42.088Z,39.30
2018-06-05T08:20:11.322Z,39.20
2018-06-05T08:22:51.313Z,39.70
2018-06-05T08:25:20.494Z,40.60
2018-06-05T08:27:49.903Z,41.10
2018-06-05T08:30:19.063Z,41.20
2018-06-05T08:32:48.280Z,41.20
2018-06-05T08:35:17.493Z,40.70
2018-06-05T08:37:46.709Z,40.20
2018-06-05T08:40:15.837Z,40.00
2018-06-05T08:42:44.957Z,39.90
2018-06-05T08:45:14.151Z,39.00
2018-06-05T08:47:43.316Z,37.30
2018-06-05T08:50:12.513Z,35.40
2018-06-05T08:52:41.673Z,33.70
2018-06-05T08:55:10.812Z,33.30
2018-06-05T08:57:39.953Z,33.70
2018-06-05T09:00:09.114Z,33.70
2018-06-05T09:02:38.249Z,33.60
2018-06-05T09:05:07.384Z,34.90
2018-06-05T09:07:36.616Z,35.40
2018-06-05T09:10:05.826Z,34.00
2018-06-05T09:12:34.949Z,33.20
2018-06-05T09:15:04.242Z,31.90
2018-06-05T09:17:33.399Z,30.60
2018-06-05T09:20:02.594Z,29.40
2018-06-05T09:22:31.821Z,29.00
2018-06-05T09:25:01.011Z,28.90
2018-06-05T09:27:30.228Z,28.80
2018-06-05T09:29:59.352Z,28.60
2018-06-05T09:32:28.577Z,28.40
2018-06-05T09:34:57.805Z,28.40
2018-06-05T09:37:27.011Z,28.80
2018-06-05T09:39:56.116Z,28.70
2018-06-05T09:42:25.273Z,28.70
2018-06-05T09:44:54.510Z,28.30
2018-06-05T09:47:23.611Z,28.40
2018-06-05T09:49:52.760Z,28.40
2018-06-05T09:52:21.909Z,28.40
2018-06-05T09:54:51.116Z,28.30
2018-06-05T09:57:20.284Z,28.20
2018-06-05T09:59:49.437Z,28.20
2018-06-05T10:02:18.706Z,28.40
2018-06-05T10:04:47.879Z,28.90
2018-06-05T10:07:17.143Z,28.80
2018-06-05T10:09:46.256Z,28.40
2018-06-05T10:12:15.381Z,28.20
2018-06-05T10:14:44.597Z,28.30
2018-06-05T10:17:13.793Z,28.40
2018-06-05T10:19:42.961Z,28.30
2018-06-05T10:22:12.116Z,28.30
2018-06-05T10:24:41.281Z,28.50
2018-06-05T10:27:10.455Z,28.60
2018-06-05T10:29:39.630Z,28.70
2018-06-05T10:32:08.766Z,28.70
2018-06-05T10:34:37.899Z,28.60
2018-06-05T10:37:07.081Z,28.70
2018-06-05T10:39:36.214Z,28.90
2018-06-05T10:42:05.501Z,29.20
2018-06-05T10:44:34.663Z,29.20
2018-06-05T10:47:03.878Z,29.30
2018-06-05T10:49:33.070Z,29.20
2018-06-05T10:52:02.181Z,29.50
2018-06-05T10:54:31.269Z,29.80
2018-06-05T10:57:00.425Z,29.70
2018-06-05T10:59:29.653Z,29.50
2018-06-05T11:01:58.930Z,29.30
2018-06-05T11:04:28.088Z,29.20
2018-06-05T11:06:57.247Z,29.20
2018-06-05T11:09:26.399Z,29.10
2018-06-05T11:11:55.540Z,28.90
2018-06-05T11:14:24.653Z,28.80
2018-06-05T11:16:53.834Z,28.60
2018-06-05T11:19:22.943Z,29.00
2018-06-05T11:21:52.113Z,29.20
2018-06-05T11:24:21.225Z,29.60
2018-06-05T11:26:50.357Z,29.70
2018-06-05T11:29:19.538Z,29.60
2018-06-05T11:31:48.762Z,29.60
2018-06-05T11:34:17.914Z,29.60
2018-06-05T11:36:47.126Z,29.50
2018-06-05T11:39:16.326Z,29.20
2018-06-05T11:41:45.500Z,28.90
2018-06-05T11:44:14.629Z,28.90
2018-06-05T11:46:43.825Z,29.00
2018-06-05T11:51:41.646Z,29.50
2018-06-05T11:54:10.824Z,29.50
2018-06-05T11:56:39.939Z,29.60
2018-06-05T11:59:09.085Z,29.50
2018-06-05T12:01:38.263Z,29.70
2018-06-05T12:04:07.389Z,29.50
2018-06-05T12:06:36.560Z,29.60
2018-06-05T12:09:07.270Z,29.70
2018-06-05T12:11:36.405Z,29.60
2018-06-05T12:14:05.613Z,29.40
2018-06-05T12:16:34.794Z,29.10
2018-06-05T12:19:03.942Z,28.90
2018-06-05T12:21:33.085Z,28.90
2018-06-05T12:24:02.238Z,29.10
2018-06-05T12:26:31.470Z,29.50
2018-06-05T12:29:00.625Z,29.70
2018-06-05T12:31:29.828Z,29.90
2018-06-05T12:33:58.916Z,30.00
2018-06-05T12:36:28.095Z,29.90
2018-06-05T12:38:57.225Z,29.90
2018-06-05T12:41:26.356Z,29.90
2018-06-05T12:43:55.514Z,29.90
2018-06-05T12:46:24.679Z,29.80
2018-06-05T12:48:53.849Z,29.80
2018-06-05T12:51:23.134Z,29.70
2018-06-05T12:53:52.256Z,29.50
2018-06-05T12:56:21.430Z,29.30
2018-06-05T12:58:50.599Z,29.10
2018-06-05T13:01:19.757Z,29.20
2018-06-05T13:03:48.954Z,29.30
2018-06-05T13:06:18.102Z,29.50
2018-06-05T13:08:47.347Z,29.60
2018-06-05T13:11:16.529Z,29.50
2018-06-05T13:13:45.727Z,29.60
2018-06-05T13:16:14.887Z,29.80
2018-06-05T13:18:44.050Z,29.90
2018-06-05T13:21:13.303Z,29.90
2018-06-05T13:23:42.421Z,29.70
2018-06-05T13:26:11.550Z,29.50
2018-06-05T13:28:40.691Z,29.40
2018-06-05T13:31:09.856Z,29.30
2018-06-05T13:33:38.985Z,29.30
2018-06-05T13:36:08.988Z,29.10
2018-06-05T13:38:38.116Z,28.90
2018-06-05T13:41:07.299Z,28.70
2018-06-05T13:43:36.577Z,28.70
2018-06-05T13:46:12.318Z,28.60
2018-06-05T13:48:41.502Z,28.60
2018-06-05T13:51:10.662Z,28.80
2018-06-05T13:53:39.804Z,28.90
2018-06-05T13:56:08.953Z,29.10
2018-06-05T13:58:38.109Z,29.00
2018-06-05T14:01:07.236Z,29.10
2018-06-05T14:03:36.383Z,29.30
2018-06-05T14:06:05.624Z,29.40
2018-06-05T14:08:34.714Z,29.50
2018-06-05T14:11:03.885Z,29.70
2018-06-05T14:13:33.116Z,29.70
2018-06-05T14:16:02.289Z,29.70
2018-06-05T14:18:31.461Z,29.70
2018-06-05T14:21:00.696Z,29.70
2018-06-05T14:23:29.862Z,29.70
2018-06-05T14:25:59.353Z,29.80
2018-06-05T14:28:28.869Z,29.80
2018-06-05T14:30:58.039Z,29.70
2018-06-05T14:33:27.660Z,29.70
2018-06-05T14:35:57.006Z,29.50
2018-06-05T14:38:26.166Z,29.30
2018-06-05T14:40:55.303Z,29.10
2018-06-05T14:43:24.499Z,29.00
2018-06-05T14:45:53.621Z,28.90
2018-06-05T14:48:22.767Z,28.80
2018-06-05T14:50:51.918Z,28.70
2018-06-05T14:53:21.060Z,28.50
2018-06-05T14:55:50.231Z,28.30
2018-06-05T14:58:19.454Z,28.20
2018-06-05T15:00:48.624Z,28.10
2018-06-05T15:03:17.781Z,28.00
2018-06-05T15:05:47.006Z,28.00
2018-06-05T15:08:16.166Z,27.90
2018-06-05T15:10:45.422Z,27.80
2018-06-05T15:13:14.617Z,27.70
2018-06-05T15:15:43.734Z,27.70
2018-06-05T15:18:12.935Z,27.70
2018-06-05T15:20:42.170Z,27.70
2018-06-05T15:23:11.377Z,27.70
2018-06-05T15:25:40.481Z,27.60
2018-06-05T15:28:09.614Z,27.60
2018-06-05T15:33:07.592Z,27.60
2018-06-05T15:35:36.710Z,27.50
2018-06-05T15:38:05.869Z,27.50
2018-06-05T15:40:35.047Z,27.50
2018-06-05T15:43:04.219Z,27.50
2018-06-05T15:45:34.874Z,27.50
2018-06-05T15:48:04.373Z,27.40
2018-06-05T15:50:33.571Z,27.50
2018-06-05T15:53:02.705Z,27.40
2018-06-05T15:55:31.882Z,27.40
2018-06-05T15:58:01.016Z,27.40
2018-06-05T16:02:58.971Z,27.40
2018-06-05T16:05:28.292Z,27.40
2018-06-05T16:07:57.554Z,27.40
2018-06-05T16:10:26.773Z,27.40
2018-06-05T16:12:55.891Z,27.40
2018-06-05T16:15:25.023Z,27.40
2018-06-05T16:17:54.195Z,27.40
2018-06-05T16:20:23.428Z,27.30
2018-06-05T16:22:52.540Z,27.30
2018-06-05T16:25:21.633Z,27.30
2018-06-05T16:27:50.806Z,27.30
2018-06-05T16:30:20.070Z,27.20
2018-06-05T16:32:49.268Z,27.20
2018-06-05T16:35:18.472Z,27.20
2018-06-05T16:37:47.632Z,27.10
2018-06-05T16:40:16.848Z,27.10
2018-06-05T16:42:46.029Z,27.10
2018-06-05T16:45:15.223Z,27.10
2018-06-05T16:47:44.344Z,27.10
2018-06-05T16:50:13.506Z,27.10
2018-06-05T16:52:42.703Z,27.00
2018-06-05T16:55:11.874Z,27.00
2018-06-05T16:57:41.055Z,27.00
2018-06-05T17:00:10.337Z,26.90
2018-06-05T17:02:39.770Z,26.90
2018-06-05T17:05:09.183Z,26.90
2018-06-05T17:07:38.461Z,26.90
2018-06-05T17:10:07.864Z,26.90
2018-06-05T17:12:37.326Z,26.90
2018-06-05T17:15:06.617Z,27.00
2018-06-05T17:17:36.117Z,27.10
2018-06-05T17:20:05.490Z,27.20
2018-06-05T17:22:34.888Z,27.20
2018-06-05T17:27:33.153Z,27.20
2018-06-05T17:32:31.188Z,27.30
2018-06-05T17:35:00.421Z,27.30
2018-06-05T17:37:29.732Z,27.30
2018-06-05T17:39:58.952Z,27.30
2018-06-05T17:47:26.065Z,27.30
2018-06-05T17:49:55.495Z,27.40
2018-06-05T17:52:24.789Z,27.40
2018-06-05T17:54:53.960Z,27.40
2018-06-05T17:57:23.199Z,27.40
2018-06-05T17:59:52.401Z,27.40
2018-06-05T18:02:21.631Z,27.40
2018-06-05T18:04:50.787Z,27.40
2018-06-05T18:07:20.770Z,27.30
2018-06-05T18:09:49.990Z,27.30
2018-06-05T18:12:19.285Z,27.30
2018-06-05T18:14:48.448Z,27.20
2018-06-05T18:17:17.621Z,27.10
2018-06-05T18:19:46.820Z,27.10
2018-06-05T18:22:15.970Z,27.00
2018-06-05T18:24:45.193Z,27.10
2018-06-05T18:27:14.347Z,27.00
2018-06-05T18:29:43.558Z,27.00
2018-06-05T18:32:12.771Z,27.00
2018-06-05T18:34:42.788Z,27.00
2018-06-05T18:37:12.100Z,26.90
2018-06-05T18:39:41.273Z,26.90
2018-06-05T18:42:10.480Z,26.80
2018-06-05T18:44:39.699Z,26.80
2018-06-05T18:47:08.882Z,26.70
2018-06-05T18:49:38.042Z,26.70
2018-06-05T18:52:07.225Z,26.70
2018-06-05T18:54:36.379Z,26.60
2018-06-05T18:57:05.584Z,26.50
2018-06-05T18:59:34.711Z,26.60
2018-06-05T19:02:03.881Z,26.50
2018-06-05T19:04:33.111Z,26.50
2018-06-05T19:07:02.272Z,26.40
2018-06-05T19:09:31.396Z,26.40
2018-06-05T19:12:01.372Z,26.30
2018-06-05T19:14:30.611Z,26.30
2018-06-05T19:16:59.716Z,26.30
2018-06-05T19:19:28.857Z,26.20
2018-06-05T19:21:58.033Z,26.10
2018-06-05T19:24:27.147Z,26.10
2018-06-05T19:26:56.350Z,26.10
2018-06-05T19:29:25.584Z,26.00
2018-06-05T19:31:54.810Z,25.80
2018-06-05T19:34:24.042Z,25.70
2018-06-05T19:36:53.318Z,25.60
2018-06-05T19:39:22.501Z,25.50
2018-06-05T19:41:51.794Z,25.50
2018-06-05T19:44:20.961Z,25.50
2018-06-05T19:46:50.129Z,25.50
2018-06-05T19:49:19.323Z,25.40
2018-06-05T19:51:48.603Z,25.30
2018-06-05T19:54:17.794Z,25.30
2018-06-05T19:56:46.943Z,25.20
2018-06-05T19:59:16.194Z,25.20
2018-06-05T20:01:45.420Z,25.10
2018-06-05T20:04:14.865Z,25.00
2018-06-05T20:06:44.047Z,24.90
2018-06-05T20:09:14.058Z,24.80
2018-06-05T20:11:43.299Z,24.80
2018-06-05T20:14:12.484Z,24.80
2018-06-05T20:16:41.735Z,24.70
2018-06-05T20:19:11.720Z,24.80
2018-06-05T20:21:41.327Z,24.90
2018-06-05T20:24:10.526Z,25.00
2018-06-05T20:26:39.753Z,25.00
2018-06-05T20:29:10.899Z,25.00
2018-06-05T20:31:40.282Z,25.00
2018-06-05T20:34:09.844Z,25.00
2018-06-05T20:36:39.270Z,25.00
2018-06-05T20:39:10.263Z,25.00
2018-06-05T20:41:39.472Z,25.00
2018-06-05T20:44:08.947Z,25.20
2018-06-05T20:46:38.487Z,25.20
2018-06-05T20:49:07.833Z,25.30
2018-06-05T20:51:37.265Z,25.10
2018-06-05T20:54:06.594Z,25.10
2018-06-05T20:56:35.941Z,25.10
2018-06-05T20:59:05.393Z,25.10
2018-06-05T21:01:34.562Z,25.20
2018-06-05T21:04:03.814Z,25.20
2018-06-05T21:06:33.017Z,25.20
2018-06-05T21:09:02.174Z,25.10
2018-06-05T21:11:31.425Z,25.10
2018-06-05T21:14:00.572Z,25.00
2018-06-05T21:16:29.756Z,25.00
2018-06-05T21:19:02.108Z,25.00
2018-06-05T21:21:31.259Z,25.00
2018-06-05T21:24:00.391Z,25.00
2018-06-05T21:28:58.757Z,24.80
2018-06-05T21:31:28.039Z,24.80
2018-06-05T21:33:57.241Z,24.80
2018-06-05T21:36:26.555Z,24.80
2018-06-05T21:38:55.690Z,24.80
2018-06-05T21:41:24.978Z,24.80
2018-06-05T21:43:54.178Z,24.70
2018-06-05T21:46:24.411Z,24.70
2018-06-05T21:48:53.617Z,24.50
2018-06-05T21:51:23.343Z,24.50
2018-06-05T21:53:52.674Z,24.40
2018-06-05T21:56:21.826Z,24.40
2018-06-05T21:58:52.922Z,24.20
2018-06-05T22:01:22.326Z,24.30
2018-06-05T22:03:51.481Z,24.20
2018-06-05T22:06:20.798Z,24.10
2018-06-05T22:08:50.061Z,24.00
2018-06-05T22:11:19.508Z,24.00
2018-06-05T22:13:48.639Z,23.90
2018-06-05T22:16:18.112Z,24.00
2018-06-05T22:18:47.298Z,23.90
2018-06-05T22:21:16.472Z,23.80
2018-06-05T22:23:46.844Z,23.70
2018-06-05T22:26:16.078Z,23.60
2018-06-05T22:28:45.252Z,23.60
2018-06-05T22:31:14.553Z,23.50
2018-06-05T22:33:43.773Z,23.30
2018-06-05T22:38:42.577Z,23.40
2018-06-05T22:41:11.748Z,23.30
2018-06-05T22:43:40.945Z,23.40
2018-06-05T22:46:10.130Z,23.40
2018-06-05T22:48:40.108Z,23.50
2018-06-05T22:51:09.329Z,23.50
2018-06-05T22:53:38.470Z,23.50
2018-06-05T22:56:07.927Z,23.40
2018-06-05T22:58:37.481Z,23.40
2018-06-05T23:01:06.617Z,23.40
2018-06-05T23:03:35.789Z,23.50
2018-06-05T23:06:04.989Z,23.50
2018-06-05T23:08:34.198Z,23.50
2018-06-05T23:11:03.352Z,23.40
2018-06-05T23:13:32.485Z,23.50
2018-06-05T23:16:02.339Z,23.50
2018-06-05T23:18:32.016Z,23.50
2018-06-05T23:21:02.148Z,23.50
2018-06-05T23:23:31.555Z,23.40
2018-06-05T23:26:00.871Z,23.40
2018-06-05T23:28:30.381Z,23.30
2018-06-05T23:30:59.564Z,23.30
2018-06-05T23:33:29.051Z,23.20
2018-06-05T23:35:58.187Z,23.20
2018-06-05T23:38:27.390Z,22.90
2018-06-05T23:40:57.014Z,23.00
2018-06-05T23:45:54.961Z,23.00
2018-06-05T23:48:24.499Z,22.90
2018-06-05T23:50:54.302Z,22.90
2018-06-05T23:53:23.429Z,22.90
2018-06-05T23:55:52.617Z,22.90
2018-06-05T23:58:21.974Z,23.00
